Flight Track Log - Related Links

Times and Time Zones

All times are in EDT time to prevent confusion due to time zone crossing. See the CES2540 flight status page for this flight to view local times or setup timezone preferences in your user account.

Time Position Orientation Groundspeed Altitude Reporting Facility
EDT Latitude Longitude Course Direction KTS MPH feet Rate Location/Type
Thu 01:48:00 AM 31.1374 119.6920 268° West  Level Estimated
Thu 01:49:00 AM 31.1332 119.5954 267° West  Level Estimated
Thu 01:50:00 AM 31.1289 119.4987 267° West  Level Estimated
Thu 01:51:00 AM 31.1246 119.4021 267° West  Level Estimated
Thu 01:52:00 AM 31.1201 119.3054 267° West  Level Estimated
Thu 01:53:00 AM 31.1157 119.2088 267° West  Level Estimated
Thu 01:54:00 AM 31.1111 119.1122 267° West  Level Estimated
Thu 01:55:00 AM 31.1064 119.0156 267° West  Level Estimated
Thu 01:56:00 AM 31.1017 118.9190 267° West  Level Estimated
Thu 01:57:00 AM 31.0970 118.8224 267° West  Level Estimated
Thu 01:58:00 AM 31.0921 118.7259 267° West  Level Estimated
Thu 01:59:00 AM 31.0872 118.6293 267° West  Level Estimated
Thu 02:00:00 AM 31.0822 118.5328 267° West  Level Estimated
Thu 02:01:00 AM 31.0771 118.4362 267° West  Level Estimated
Thu 02:02:00 AM 31.0720 118.3397 266° West  Level Estimated
Thu 02:03:00 AM 31.0667 118.2431 266° West  Level Estimated
Thu 02:04:00 AM 31.0614 118.1466 266° West  Level Estimated
Thu 02:05:00 AM 31.0561 118.0501 266° West  Level Estimated
Thu 02:06:00 AM 31.0507 117.9537 266° West  Level Estimated
Thu 02:07:00 AM 31.0452 117.8572 266° West  Level Estimated
Thu 02:08:00 AM 31.0396 117.7607 266° West  Level Estimated
Thu 02:09:00 AM 31.0339 117.6643 266° West  Level Estimated
Thu 02:10:00 AM 31.0282 117.5678 266° West  Level Estimated
Thu 02:11:00 AM 31.0224 117.4714 266° West  Level Estimated
Thu 02:12:00 AM 31.0166 117.3750 266° West  Level Estimated
Thu 02:13:00 AM 31.0106 117.2785 266° West  Level Estimated
Thu 02:14:00 AM 31.0046 117.1822 266° West  Level Estimated
Thu 02:15:00 AM 30.9986 117.0858 266° West  Level Estimated
Thu 02:16:00 AM 30.9924 116.9894 266° West  Level Estimated
Thu 02:17:00 AM 30.9862 116.8930 266° West  Level Estimated
Thu 02:18:00 AM 30.9799 116.7967 266° West  Level Estimated
Thu 02:19:00 AM 30.9735 116.7004 266° West  Level Estimated
Thu 02:20:00 AM 30.9671 116.6040 266° West  Level Estimated
Thu 02:21:00 AM 30.9606 116.5077 266° West  Level Estimated
Thu 02:22:00 AM 30.9540 116.4114 265° West  Level Estimated
Thu 02:23:00 AM 30.9474 116.3152 265° West  Level Estimated
Thu 02:24:00 AM 30.9407 116.2189 265° West  Level Estimated
Thu 02:25:00 AM 30.9339 116.1226 265° West  Level Estimated
Thu 02:26:00 AM 30.9270 116.0264 265° West  Level Estimated
Thu 02:27:00 AM 30.9201 115.9302 265° West  Level Estimated
Thu 02:28:00 AM 30.9131 115.8340 265° West  Level Estimated
Thu 02:29:00 AM 30.9060 115.7378 265° West  Level Estimated
Thu 02:30:00 AM 30.8988 115.6416 265° West  Level Estimated
Thu 02:31:00 AM 30.8916 115.5454 265° West  Level Estimated
Thu 02:32:00 AM 30.8843 115.4493 265° West  Level Estimated
Thu 02:33:00 AM 30.8770 115.3531 265° West  Level Estimated
Thu 02:34:00 AM 30.8695 115.2570 265° West  Level Estimated
Thu 02:35:00 AM 30.8620 115.1609 265° West  Level Estimated
Thu 02:36:00 AM 30.8545 115.0648 265° West  Level Estimated
Thu 02:37:00 AM 30.8468 114.9687 265° West  Level Estimated
Thu 02:38:00 AM 30.8391 114.8726 265° West  Level Estimated
Thu 02:39:00 AM 30.8313 114.7766 265° West  Level Estimated
Thu 02:40:00 AM 30.8235 114.6806 265° West  Level Estimated
Thu 02:41:00 AM 30.8155 114.5845 265° West  Level Estimated
Thu 02:42:00 AM 30.8075 114.4885 264° West  Level Estimated
Thu 02:43:00 AM 30.7995 114.3926 264° West  Level Estimated
Thu 02:44:00 AM 30.7913 114.2966 264° West  Level Estimated
Thu 02:45:00 AM 30.7838 114.2081 264° West  Level Estimated
Thu 02:46:00 AM 30.7838 114.2081 North  Level Estimated
Thu 02:47:00 AM 30.7838 114.2081 North  Level Estimated
Thu 02:48:00 AM 30.7838 114.2081 North  Level Estimated
Thu 02:49:00 AM 30.7838 114.2081 North  Level Estimated
Thu 02:50:00 AM 30.7838 114.2081 North  Level Estimated
Thu 02:51:00 AM 30.7838 114.2081 North  Level Estimated
Thu 02:52:00 AM 30.7838 114.2081 North  Level Estimated
Thu 02:53:00 AM 30.7838 114.2081 North  Level Estimated
Thu 02:54:00 AM 30.7838 114.2081 North  Level Estimated
Thu 02:55:00 AM 30.7838 114.2081 North  Level Estimated
Thu 02:56:00 AM 30.7838 114.2081 North  Level Estimated
Thu 02:57:00 AM 30.7838 114.2081 North  Level Estimated
Thu 02:58:00 AM 30.7838 114.2081 North  Level Estimated
Thu 02:59:00 AM 30.7838 114.2081 North  Level Estimated
Thu 03:00:00 AM 30.7838 114.2081 North  Level Estimated
Thu 03:01:00 AM 30.7838 114.2081 North  Level Estimated

Login

Don't have an account? Register now (free) for customized features, flight alerts, and more!